Terminal Aerodrome Forecast
Issued by NWS Sioux Falls, SD

Home | Current Version | Previous Version | Graphics & Text | Print | Product List | Glossary Off
Versions: 1 2 3 4 5 6 7 8 9 10 11 12 13 14 15

000
FTUS43 KFSD 012331
TAFFSD
TAF
KFSD 012331Z 0200/0224 32010KT P6SM SCT050
     FM020300 32005KT P6SM SKC
     FM021100 15005KT P6SM BKN150
     FM021700 16013G18KT P6SM OVC100
     FM022200 17016G24KT P6SM OVC045=

USA.gov is the U.S. government's official web portal to all federal, state and local government web resources and services.